Terminal Aerodrome Forecast
Issued by NWS La Crosse, WI

Home | Current Version | Previous Version | Text Only | Print | Product List | Glossary On
Versions: 1 2 3 4 5 6 7 8 9 10 11 12 13 14 15 16 17 18 19
000
FTUS43 KARX 161344 AAB
TAFLSE
TAF AMD
KLSE 161344Z 1614/1712 14005KT P6SM VCSH SCT035 OVC090
     FM161700 VRB03KT 6SM BR OVC015
     FM162000 VRB03KT 3SM -FZRA BR SCT008 OVC015
     FM162300 07004KT 1SM -FZRA BR OVC008
     FM170200 05005KT 2SM -RA BR BKN005=

USA.gov is the U.S. government's official web portal to all federal, state and local government web resources and services.